Home > Products > Valid Products > TAF

000
FTUS46 KSTO 011700
TAFRDD
TAF
KRDD 011720Z 0118/0218 01014G23KT P6SM SKC
     FM020000 36009KT P6SM SKC=



000
FTUS46 KSTO 011700
TAFSAC
TAF
KSAC 011720Z 0118/0218 33016G23KT P6SM SKC
     FM020200 31006KT P6SM SKC=



000
FTUS46 KSTO 011700
TAFSCK
TAF
KSCK 011720Z 0118/0218 32013G19KT P6SM SKC
     FM020300 32006KT P6SM SKC=



000
FTUS46 KSTO 011700
TAFSMF
TAF
KSMF 011720Z 0118/0218 33018G25KT P6SM SKC
     FM020200 32008KT P6SM SKC=



000
FTUS46 KSTO 011700
TAFMHR
TAF
KMHR 011720Z 0118/0218 33014G22KT P6SM SKC
     FM020200 VRB04KT P6SM SKC=



000
FTUS46 KSTO 011700
TAFRBL
TAF
KRBL 011720Z 0118/0218 36016G26KT P6SM SKC
     FM020000 35008KT P6SM SKC=



000
FTUS46 KSTO 011600 AAA
TAFRBL
TAF AMD
KRBL 011635Z 0117/0212 36018G26KT P6SM SKC
     FM020000 35012KT P6SM SKC
     FM020300 34005KT P6SM SKC=



000
FTUS46 KSTO 011100
TAFSMF
TAF
KSMF 011136Z 0112/0212 34015G25KT P6SM SKC
     FM020000 34014KT P6SM SKC
     FM020500 32004KT P6SM SKC=



000
FTUS46 KSTO 011100
TAFRBL
TAF
KRBL 011136Z 0112/0212 35012KT P6SM SKC
     FM011800 35015G25KT P6SM SKC
     FM020000 35012KT P6SM SKC
     FM020300 34005KT P6SM SKC=



000
FTUS46 KSTO 011100
TAFSAC
TAF
KSAC 011136Z 0112/0212 34015G25KT P6SM SKC
     FM012300 33014KT P6SM SKC
     FM020300 33006KT P6SM SKC=



000
FTUS46 KSTO 011100
TAFSCK
TAF
KSCK 011136Z 0112/0212 33010G15KT P6SM SKC
     FM020000 33010G15KT P6SM SKC
     FM020300 31005KT P6SM SKC
     FM020900 VRB05KT P6SM SKC=



000
FTUS46 KSTO 011100
TAFMHR
TAF
KMHR 011136Z 0112/0212 33012G18KT P6SM SKC
     FM020000 36009KT P6SM SKC
     FM020400 VRB05KT P6SM SKC=



000
FTUS46 KSTO 011100
TAFRDD
TAF
KRDD 011136Z 0112/0212 36010G20KT P6SM SKC
     FM011600 36016G25KT P6SM SKC
     FM020000 01010KT P6SM SKC
     FM020400 36005KT P6SM SKC=



000
FTUS46 KSTO 010500
TAFRBL
TAF
KRBL 010531Z 0106/0206 35016KT P6SM SKC
     FM011600 35020G28KT P6SM SKC
     FM020200 35015KT P6SM SKC=



000
FTUS46 KSTO 010500
TAFSAC
TAF
KSAC 010531Z 0106/0206 33008KT P6SM SKC
     FM011700 34014G22KT P6SM SKC
     FM012300 33011KT P6SM SKC
     FM020300 31006KT P6SM SKC=



000
FTUS46 KSTO 010500
TAFSMF
TAF
KSMF 010531Z 0106/0206 32008KT P6SM SKC
     FM011700 34015G24KT P6SM SKC
     FM012300 34013KT P6SM SKC
     FM020500 31006KT P6SM SKC=



000
FTUS46 KSTO 010500
TAFRDD
TAF
KRDD 010531Z 0106/0206 36011KT P6SM SKC
     FM011600 36016G26KT P6SM SKC
     FM012200 01015KT P6SM SKC
     FM020400 36006KT P6SM SKC=



000
FTUS46 KSTO 010500
TAFMHR
TAF
KMHR 010531Z 0106/0206 32007KT P6SM SKC
     FM011600 33012G20KT P6SM SKC
     FM012300 32009KT P6SM SKC
     FM020400 VRB05KT P6SM SKC=



000
FTUS46 KSTO 010500
TAFSCK
TAF
KSCK 010531Z 0106/0206 30008KT P6SM SKC
     FM011800 33013KT P6SM SKC
     FM020300 31007KT P6SM SKC=



000
FTUS46 KSTO 010400 AAA
TAFRBL
TAF AMD
KRBL 010417Z 0104/0124 35016KT P6SM SKC
     FM011400 35018G27KT P6SM SKC=



000
FTUS46 KSTO 302300
TAFSCK
TAF
KSCK 302320Z 0100/0124 30008KT P6SM SKC
     FM011800 34013KT P6SM SKC=



000
FTUS46 KSTO 302300
TAFRDD
TAF
KRDD 302320Z 0100/0124 36012KT P6SM SKC
     FM011600 36016G26KT P6SM SKC=



000
FTUS46 KSTO 302300
TAFRBL
TAF
KRBL 302320Z 0100/0124 35013KT P6SM SKC
     FM011400 35018G27KT P6SM SKC=



000
FTUS46 KSTO 302300
TAFMHR
TAF
KMHR 302320Z 0100/0124 32007KT P6SM SKC
     FM011600 33012G20KT P6SM SKC=



000
FTUS46 KSTO 302300
TAFSAC
TAF
KSAC 302320Z 0100/0124 32008KT P6SM SKC
     FM011600 34014G24KT P6SM SKC=



000
FTUS46 KSTO 302300
TAFSMF
TAF
KSMF 302320Z 0100/0124 33008KT P6SM SKC
     FM011600 34015G25KT P6SM SKC=



000
FTUS46 KSTO 301700
TAFSCK
TAF
KSCK 301720Z 3018/0118 30008KT P6SM SKC
     FM011700 34013KT P6SM SKC=



000
FTUS46 KSTO 301700
TAFRBL
TAF
KRBL 301720Z 3018/0118 35014KT P6SM FEW200
     FM011400 35016G25KT P6SM SKC=



000
FTUS46 KSTO 301700
TAFSMF
TAF
KSMF 301720Z 3018/0118 33008KT P6SM FEW200
     FM011600 34015G24KT P6SM SKC=



000
FTUS46 KSTO 301700
TAFRDD
TAF
KRDD 301720Z 3018/0118 36010KT P6SM FEW200
     FM011400 35011G20KT P6SM SKC=



000
FTUS46 KSTO 301700
TAFMHR
TAF
KMHR 301720Z 3018/0118 32007KT P6SM FEW200
     FM011600 34012G20KT P6SM SKC=



000
FTUS46 KSTO 301700
TAFSAC
TAF
KSAC 301720Z 3018/0118 32007KT P6SM FEW200
     FM011600 35012G20KT P6SM SKC=



000
FTUS46 KSTO 301100
TAFRDD
TAF
KRDD 301131Z 3012/0112 VRB05KT P6SM SKC
     FM301800 36008KT P6SM SKC
     FM010900 36012KT P6SM SKC=



000
FTUS46 KSTO 301100
TAFSCK
TAF
KSCK 301131Z 3012/0112 VRB05KT P6SM SKC
     FM301800 30008KT P6SM SKC
     FM010900 30012KT P6SM SKC=



000
FTUS46 KSTO 301100
TAFSAC
TAF
KSAC 301131Z 3012/0112 VRB04KT P6SM SKC
     FM301800 32008KT P6SM SKC
     FM010900 33012KT P6SM SKC=



000
FTUS46 KSTO 301100
TAFSMF
TAF
KSMF 301131Z 3012/0112 16005KT P6SM SKC
     FM301800 32008KT P6SM SKC
     FM010900 32013KT P6SM SKC=



000
FTUS46 KSTO 301100
TAFMHR
TAF
KMHR 301131Z 3012/0112 16005KT P6SM SKC
     FM302100 30006KT P6SM SKC
     FM010000 30010KT P6SM SKC=



000
FTUS46 KSTO 301100
TAFRBL
TAF
KRBL 301131Z 3012/0112 VRB05KT P6SM SKC
     FM301800 34010KT P6SM SKC
     FM010900 33014KT P6SM SKC=



000
FTUS46 KSTO 300500
TAFMHR
TAF
KMHR 300520Z 3006/0106 VRB04KT P6SM SCT250
     FM301900 31007KT P6SM SKC=



000
FTUS46 KSTO 300500
TAFRDD
TAF
KRDD 300520Z 3006/0106 VRB04KT P6SM BKN250
     FM301700 36011KT P6SM FEW250
     FM010400 35005KT P6SM SKC=



000
FTUS46 KSTO 300500
TAFSCK
TAF
KSCK 300520Z 3006/0106 28007KT P6SM FEW250
     FM301900 31009KT P6SM SKC=



000
FTUS46 KSTO 300500
TAFRBL
TAF
KRBL 300520Z 3006/0106 32005KT P6SM BKN250
     FM301700 35013KT P6SM FEW250=



000
FTUS46 KSTO 300500
TAFSMF
TAF
KSMF 300520Z 3006/0106 16006KT P6SM SCT250
     FM301800 33008KT P6SM SKC=



000
FTUS46 KSTO 300500
TAFSAC
TAF
KSAC 300520Z 3006/0106 21006KT P6SM SCT250
     FM301800 32008KT P6SM SKC=



000
FTUS46 KSTO 292300
TAFMHR
TAF
KMHR 292322Z 3000/3024 21006KT P6SM SKC
     FM300500 VRB04KT P6SM SCT250
     FM301800 31007KT P6SM SKC=



000
FTUS46 KSTO 292300
TAFRDD
TAF
KRDD 292322Z 3000/3024 17007KT P6SM SCT250
     FM300300 VRB04KT P6SM BKN250
     FM301500 36010KT P6SM FEW250=



000
FTUS46 KSTO 292300
TAFSMF
TAF
KSMF 292322Z 3000/3024 19007KT P6SM SKC
     FM300500 16006KT P6SM SCT250
     FM301800 32008KT P6SM SKC=



000
FTUS46 KSTO 292300
TAFSAC
TAF
KSAC 292322Z 3000/3024 21006KT P6SM SKC
     FM300500 VRB04KT P6SM SCT250
     FM301800 32008KT P6SM SKC=



000
FTUS46 KSTO 292300
TAFSCK
TAF
KSCK 292322Z 3000/3024 28009KT P6SM SKC
     FM301900 31009KT P6SM SKC=



000
FTUS46 KSTO 292300
TAFRBL
TAF
KRBL 292322Z 3000/3024 16007KT P6SM SCT250
     FM300300 32005KT P6SM BKN250
     FM301600 35011KT P6SM FEW250=



000
FTUS46 KSTO 291700
TAFSCK
TAF
KSCK 291740Z 2918/3018 28005KT P6SM FEW250
     FM292100 30008KT P6SM SKC=



000
FTUS46 KSTO 291700
TAFSMF
TAF
KSMF 291740Z 2918/3018 VRB05KT P6SM FEW250
     FM292100 18006KT P6SM SKC
     FM300500 16008KT P6SM SKC=



000
FTUS46 KSTO 291700
TAFSAC
TAF
KSAC 291740Z 2918/3018 VRB04KT P6SM FEW250
     FM292100 21006KT P6SM FEW250
     FM300600 VRB05KT P6SM SKC=



000
FTUS46 KSTO 291700
TAFRDD
TAF
KRDD 291740Z 2918/3018 VRB05KT P6SM SCT250
     FM300000 17006KT P6SM SKC
     FM300300 VRB04KT P6SM SKC=



000
FTUS46 KSTO 291700
TAFMHR
TAF
KMHR 291740Z 2918/3018 VRB06KT P6SM SKC=



000
FTUS46 KSTO 291700
TAFRBL
TAF
KRBL 291740Z 2918/3018 VRB04KT P6SM SCT250
     FM292100 17006KT P6SM SKC
     FM300300 VRB05KT P6SM SKC=



000
FTUS46 KSTO 291100
TAFMHR
TAF
KMHR 291129Z 2912/3012 VRB04KT P6SM FEW250
     FM292100 24005KT P6SM FEW250
     FM300600 VRB05KT P6SM SKC=



000
FTUS46 KSTO 291100
TAFSMF
TAF
KSMF 291129Z 2912/3012 VRB05KT P6SM FEW250
     FM292100 16006KT P6SM SKC
     FM300300 VRB05KT P6SM SKC=



000
FTUS46 KSTO 291100
TAFSAC
TAF
KSAC 291129Z 2912/3012 VRB04KT P6SM FEW250
     FM292100 24005KT P6SM FEW250
     FM300600 VRB05KT P6SM SKC=



000
FTUS46 KSTO 291100
TAFRBL
TAF
KRBL 291129Z 2912/3012 VRB04KT P6SM SCT250
     FM292100 16006KT P6SM SKC
     FM300000 VRB03KT P6SM SKC=



000
FTUS46 KSTO 291100
TAFSCK
TAF
KSCK 291129Z 2912/3012 28005KT P6SM FEW250
     FM292000 31008KT P6SM SKC
     FM300800 27005KT P6SM SKC=



000
FTUS46 KSTO 291100
TAFRDD
TAF
KRDD 291129Z 2912/3012 VRB05KT P6SM SCT250
     FM300000 16006KT P6SM SKC
     FM300600 VRB04KT P6SM SKC=



000
FTUS46 KSTO 290500
TAFSCK
TAF
KSCK 290520Z 2906/3006 VRB04KT P6SM FEW250
     FM292000 31008KT P6SM SKC=



000
FTUS46 KSTO 290500
TAFRBL
TAF
KRBL 290520Z 2906/3006 VRB04KT P6SM SCT250
      TEMPO 2911/2915 1SM BR FEW005
     FM291800 15006KT P6SM SKC=



000
FTUS46 KSTO 290500
TAFSMF
TAF
KSMF 290520Z 2906/3006 VRB05KT P6SM FEW250
      TEMPO 2911/2915 1SM BR FEW005
     FM292100 20007KT P6SM SKC=



000
FTUS46 KSTO 290500
TAFRDD
TAF
KRDD 290520Z 2906/3006 VRB04KT P6SM SCT250
      TEMPO 2911/2915 1SM BR FEW005
     FM291800 16006KT P6SM SKC=



000
FTUS46 KSTO 290500
TAFSAC
TAF
KSAC 290520Z 2906/3006 VRB04KT P6SM FEW250
      TEMPO 2911/2915 1SM BR FEW005
     FM292100 24006KT P6SM SKC=



000
FTUS46 KSTO 290500
TAFMHR
TAF
KMHR 290520Z 2906/3006 VRB05KT P6SM FEW250
      TEMPO 2911/2915 1SM BR FEW005
     FM292100 20006KT P6SM SCT250=



000
FTUS46 KSTO 282300
TAFMHR
TAF
KMHR 282323Z 2900/2924 12005KT P6SM FEW040 BKN100
     FM291200 15006KT P6SM FEW250
     FM292100 20006KT P6SM SCT250=



000
FTUS46 KSTO 282300
TAFSMF
TAF
KSMF 282323Z 2900/2924 18006KT P6SM FEW040 SCT070 BKN100
     FM290400 VRB04KT P6SM SKC
     FM292100 20007KT P6SM SKC=



000
FTUS46 KSTO 282300
TAFSAC
TAF
KSAC 282323Z 2900/2924 VRB04KT P6SM FEW080 BKN100
     FM290400 VRB04KT P6SM SKC
     FM292100 24006KT P6SM SKC=



000
FTUS46 KSTO 282300
TAFRBL
TAF
KRBL 282323Z 2900/2924 19008KT P6SM BKN100
     FM290100 VRB04KT P6SM SCT250
     FM291800 15006KT P6SM SKC=



000
FTUS46 KSTO 282300
TAFRDD
TAF
KRDD 282323Z 2900/2924 19008KT P6SM BKN100
     FM290100 VRB04KT P6SM SCT250
     FM291800 16006KT P6SM SKC=



000
FTUS46 KSTO 282300
TAFSCK
TAF
KSCK 282323Z 2900/2924 VRB04KT P6SM BKN080
     FM292000 31008KT P6SM SKC=



    US Dept of Commerce
    National Oceanic and Atmospheric Administration
    National Weather Service
    1325 East West Highway
    Silver Spring, MD 20910
    Page Author: NWS Internet Services Team
Disclaimer
Information Quality
Credits
Glossary
Privacy Policy
Freedom of Information Act (FOIA)
About Us
Career Opportunities